Time;durP1;ratioP1;P1;durP2;ratioP2;P2;SDS_P1;SDS_P2;PMS_P1;PMS_P2;Temp;Humidity;BMP_temperature;BMP_pressure;BME280_temperature;BME280_humidity;BME280_pressure;Samples;Min_cycle;Max_cycle;Signal;HPM_P1;HPM_P2
2021/03/10 00:00:50;;;;;;;51.93;29.10;;;3.20;99.90;;;;;;5053179;28;20210;-77
2021/03/10 00:03:17;;;;;;;50.23;28.23;;;3.20;99.90;;;;;;5053356;28;20253;-77
2021/03/10 00:05:43;;;;;;;47.93;28.30;;;3.20;99.90;;;;;;5034075;28;20235;-77
2021/03/10 00:08:10;;;;;;;48.87;27.33;;;3.20;99.90;;;;;;5053660;28;20227;-77
2021/03/10 00:10:37;;;;;;;50.47;28.40;;;3.10;99.90;;;;;;5052630;28;20266;-78
2021/03/10 00:13:04;;;;;;;49.13;27.73;;;3.10;99.90;;;;;;5051619;28;20225;-77
2021/03/10 00:15:30;;;;;;;48.30;28.63;;;3.10;99.90;;;;;;5052881;28;20239;-77
2021/03/10 00:17:57;;;;;;;48.20;27.50;;;3.00;99.90;;;;;;5052709;28;20297;-77
2021/03/10 00:20:23;;;;;;;53.63;28.57;;;3.00;99.90;;;;;;5040203;28;20255;-77
2021/03/10 00:22:50;;;;;;;47.17;26.90;;;3.00;99.90;;;;;;5051070;28;20245;-77
2021/03/10 00:25:18;;;;;;;46.97;25.90;;;2.90;99.90;;;;;;5053142;28;20238;-77
2021/03/10 00:27:46;;;;;;;47.23;27.20;;;3.00;99.90;;;;;;5053285;28;20235;-78
2021/03/10 00:30:13;;;;;;;47.13;26.93;;;2.90;99.90;;;;;;5052746;28;20262;-77
2021/03/10 00:32:40;;;;;;;48.87;27.50;;;2.90;99.90;;;;;;5051675;28;20206;-78
2021/03/10 00:35:08;;;;;;;47.03;27.27;;;2.90;99.90;;;;;;5052959;28;20679;-77
2021/03/10 00:37:35;;;;;;;46.70;26.60;;;2.80;99.90;;;;;;5052401;28;20235;-78
2021/03/10 00:40:01;;;;;;;49.33;28.53;;;2.80;99.90;;;;;;5052699;28;20200;-77
2021/03/10 00:42:27;;;;;;;51.27;28.87;;;2.80;99.90;;;;;;5042901;28;20239;-77
2021/03/10 00:44:55;;;;;;;49.60;27.30;;;2.80;99.90;;;;;;5032679;28;20285;-77
2021/03/10 00:47:21;;;;;;;46.07;27.47;;;2.70;99.90;;;;;;5043551;28;20282;-77
2021/03/10 00:49:48;;;;;;;47.10;27.23;;;2.70;99.90;;;;;;5052109;28;20219;-77
2021/03/10 00:52:14;;;;;;;49.60;27.80;;;2.60;99.90;;;;;;5051763;28;20230;-78
2021/03/10 00:54:41;;;;;;;48.17;27.30;;;2.60;99.90;;;;;;5052272;28;20225;-78
2021/03/10 00:57:08;;;;;;;49.33;27.93;;;2.60;99.90;;;;;;5050853;28;20597;-77
2021/03/10 00:59:35;;;;;;;48.53;26.90;;;2.60;99.90;;;;;;5048232;28;20668;-77
2021/03/10 01:02:02;;;;;;;52.03;28.20;;;2.60;99.90;;;;;;5050164;28;20230;-78
2021/03/10 01:04:29;;;;;;;48.77;27.90;;;2.60;99.90;;;;;;5050906;28;20294;-77
2021/03/10 01:06:55;;;;;;;50.47;26.90;;;2.60;99.90;;;;;;5047548;28;20234;-77
2021/03/10 01:09:22;;;;;;;49.37;27.77;;;2.50;99.90;;;;;;5051442;28;20261;-77
2021/03/10 01:11:48;;;;;;;49.83;27.90;;;2.50;99.90;;;;;;5049918;28;20220;-78
2021/03/10 01:14:16;;;;;;;48.23;27.40;;;2.50;99.90;;;;;;5051864;28;20241;-77
2021/03/10 01:16:42;;;;;;;53.93;28.13;;;2.40;99.90;;;;;;5051591;28;20203;-77
2021/03/10 01:19:10;;;;;;;49.63;27.57;;;2.40;99.90;;;;;;5052078;28;20259;-77
2021/03/10 01:21:36;;;;;;;51.73;28.27;;;2.40;99.90;;;;;;5051667;28;20240;-77
2021/03/10 01:24:04;;;;;;;49.83;28.00;;;2.40;99.90;;;;;;5051395;28;20251;-78
2021/03/10 01:26:30;;;;;;;50.83;28.87;;;2.40;99.90;;;;;;5050486;28;20294;-77
2021/03/10 01:28:56;;;;;;;51.73;28.00;;;2.20;99.90;;;;;;5051234;28;20871;-77
2021/03/10 01:31:23;;;;;;;49.03;27.33;;;2.20;99.90;;;;;;5051722;28;20252;-77
2021/03/10 01:33:49;;;;;;;47.57;27.17;;;1.90;99.90;;;;;;5047877;28;20235;-77
2021/03/10 01:36:16;;;;;;;50.77;27.47;;;1.80;99.90;;;;;;5031551;28;20674;-77
2021/03/10 01:38:43;;;;;;;48.03;26.80;;;1.70;99.90;;;;;;5031984;28;20253;-78
2021/03/10 01:41:12;;;;;;;45.70;26.20;;;1.60;99.90;;;;;;5032360;28;20877;-77
2021/03/10 01:43:39;;;;;;;50.57;26.50;;;1.50;99.90;;;;;;5052177;28;20253;-77
2021/03/10 01:46:06;;;;;;;52.07;27.43;;;1.60;99.90;;;;;;5051307;28;20709;-77
2021/03/10 01:48:32;;;;;;;49.00;28.07;;;1.60;99.90;;;;;;5051801;28;20234;-77
2021/03/10 01:51:03;;;;;;;54.27;28.50;;;1.70;99.90;;;;;;5041869;28;20285;-78
2021/03/10 01:53:31;;;;;;;51.63;27.30;;;1.60;99.90;;;;;;5038080;28;20722;-77
2021/03/10 01:55:57;;;;;;;48.47;27.87;;;1.50;99.90;;;;;;5051295;28;20243;-77
2021/03/10 01:58:24;;;;;;;48.27;27.50;;;1.50;99.90;;;;;;5041764;28;20290;-77
2021/03/10 02:00:50;;;;;;;51.70;26.90;;;1.50;99.90;;;;;;5031450;28;20265;-77
2021/03/10 02:03:17;;;;;;;51.50;27.70;;;1.60;99.90;;;;;;5043284;28;20239;-77
2021/03/10 02:05:43;;;;;;;50.90;27.90;;;1.60;99.90;;;;;;5045946;28;20235;-77
2021/03/10 02:08:37;;;;;;;51.93;27.80;;;1.60;99.90;;;;;;5067436;28;20230;-77
2021/03/10 02:11:12;;;;;;;46.60;24.93;;;1.60;99.90;;;;;;5051446;28;20224;-78
2021/03/10 02:14:07;;;;;;;54.67;29.37;;;1.60;99.90;;;;;;5051485;28;20681;-77
2021/03/10 02:16:42;;;;;;;51.93;28.17;;;1.90;99.90;;;;;;5050292;28;20196;-77
2021/03/10 02:19:29;;;;;;;51.00;27.87;;;1.80;99.90;;;;;;5031467;28;20197;-77
2021/03/10 02:22:02;;;;;;;49.30;26.53;;;1.90;99.90;;;;;;5031341;28;20243;-77
2021/03/10 02:24:43;;;;;;;51.63;27.37;;;1.80;99.90;;;;;;5031455;28;20317;-77
2021/03/10 02:27:49;;;;;;;54.37;28.37;;;2.00;99.90;;;;;;5031740;28;20228;-77
2021/03/10 02:30:19;;;;;;;54.07;28.30;;;2.20;99.90;;;;;;5028694;28;20256;-77
2021/03/10 02:32:53;;;;;;;53.70;28.07;;;2.20;99.90;;;;;;5050956;28;20688;-77
2021/03/10 02:35:21;;;;;;;55.73;29.03;;;2.20;99.90;;;;;;5050703;28;20233;-77
2021/03/10 02:37:51;;;;;;;52.67;27.17;;;2.20;99.90;;;;;;5054281;28;20273;-77
2021/03/10 02:40:20;;;;;;;51.97;28.27;;;2.20;99.90;;;;;;5055459;28;20234;-77
2021/03/10 02:42:48;;;;;;;52.73;28.03;;;2.20;99.90;;;;;;5055100;28;20233;-77
2021/03/10 02:45:16;;;;;;;54.70;28.10;;;2.20;99.90;;;;;;5054145;28;20285;-77
2021/03/10 02:47:43;;;;;;;53.43;27.80;;;2.30;99.90;;;;;;5054541;28;20661;-77
2021/03/10 02:50:12;;;;;;;52.47;28.93;;;2.40;99.90;;;;;;5054109;28;20750;-77
2021/03/10 02:52:40;;;;;;;57.03;28.90;;;2.50;99.90;;;;;;5054692;28;20243;-77
2021/03/10 02:55:07;;;;;;;53.30;27.77;;;2.40;99.90;;;;;;5038106;28;20324;-77
2021/03/10 02:57:35;;;;;;;54.50;29.03;;;2.50;99.90;;;;;;5052928;28;20229;-77
2021/03/10 03:00:06;;;;;;;52.07;28.57;;;2.60;99.90;;;;;;5051059;28;20225;-77
2021/03/10 03:02:34;;;;;;;51.27;27.40;;;2.60;99.90;;;;;;5053758;28;20259;-77
2021/03/10 03:05:00;;;;;;;52.60;27.80;;;2.60;99.90;;;;;;5053515;28;20200;-77
2021/03/10 03:07:27;;;;;;;53.07;28.77;;;2.60;99.90;;;;;;5054418;28;20239;-77
2021/03/10 03:09:53;;;;;;;50.87;27.73;;;2.70;99.90;;;;;;5049371;28;20695;-77
2021/03/10 03:12:20;;;;;;;51.60;27.77;;;2.70;99.90;;;;;;5034529;28;20249;-77
2021/03/10 03:14:46;;;;;;;52.77;28.60;;;2.70;99.90;;;;;;5044481;28;20232;-77
2021/03/10 03:17:15;;;;;;;57.47;28.83;;;2.70;99.90;;;;;;5047312;28;20309;-76
2021/03/10 03:19:43;;;;;;;56.13;28.80;;;2.80;99.90;;;;;;5048540;28;20339;-77
2021/03/10 03:22:09;;;;;;;55.37;28.73;;;2.70;99.90;;;;;;5054132;28;20293;-77
2021/03/10 03:24:36;;;;;;;55.00;28.30;;;2.70;99.90;;;;;;5053914;28;20234;-77
2021/03/10 03:27:04;;;;;;;51.53;28.00;;;2.70;99.90;;;;;;5033937;28;20245;-78
2021/03/10 03:29:32;;;;;;;54.87;28.83;;;2.70;99.90;;;;;;5034102;28;20226;-77
2021/03/10 03:32:00;;;;;;;51.97;27.73;;;2.70;99.90;;;;;;5033359;28;20319;-77
2021/03/10 03:34:27;;;;;;;56.27;29.10;;;2.70;99.90;;;;;;5034469;28;20240;-76
2021/03/10 03:36:56;;;;;;;49.00;27.13;;;2.70;99.90;;;;;;5053484;28;20201;-78
2021/03/10 03:39:22;;;;;;;53.40;28.60;;;2.70;99.90;;;;;;5053533;28;20196;-77
2021/03/10 03:41:50;;;;;;;55.77;27.60;;;2.70;99.90;;;;;;5053779;28;20246;-76
2021/03/10 03:44:17;;;;;;;52.00;28.97;;;2.80;99.90;;;;;;5043089;28;20581;-77
2021/03/10 03:46:44;;;;;;;55.57;29.33;;;2.80;99.90;;;;;;5051887;28;20240;-78
2021/03/10 03:49:10;;;;;;;61.93;30.20;;;2.80;99.90;;;;;;5051712;28;20700;-77
2021/03/10 03:51:37;;;;;;;55.10;29.90;;;2.70;99.90;;;;;;5038177;28;20244;-77
2021/03/10 03:54:06;;;;;;;55.57;29.23;;;2.70;99.90;;;;;;5033815;28;20211;-77
2021/03/10 03:56:33;;;;;;;55.37;29.87;;;2.70;99.90;;;;;;5039219;28;20233;-78
2021/03/10 03:58:59;;;;;;;55.10;29.70;;;2.70;99.90;;;;;;5053625;28;20294;-77
2021/03/10 04:01:26;;;;;;;55.27;29.57;;;2.60;99.90;;;;;;5046039;28;20235;-77
2021/03/10 04:03:53;;;;;;;53.47;28.40;;;2.60;99.90;;;;;;5050621;28;20247;-77
2021/03/10 04:06:19;;;;;;;54.27;29.47;;;2.60;99.90;;;;;;5052233;28;20322;-76
2021/03/10 04:08:46;;;;;;;54.33;29.70;;;2.60;99.90;;;;;;5053517;28;20225;-77
2021/03/10 04:11:17;;;;;;;56.13;28.80;;;2.60;99.90;;;;;;5053314;28;20260;-77
2021/03/10 04:13:43;;;;;;;55.60;29.53;;;2.60;99.90;;;;;;5053533;28;20240;-77
2021/03/10 04:16:10;;;;;;;56.00;29.53;;;2.60;99.90;;;;;;5051252;28;20271;-77
2021/03/10 04:18:37;;;;;;;54.33;29.77;;;2.60;99.90;;;;;;5052206;28;20253;-77
2021/03/10 04:21:05;;;;;;;59.10;30.17;;;2.70;99.90;;;;;;5052530;28;20232;-77
2021/03/10 04:23:31;;;;;;;57.77;30.50;;;2.70;99.90;;;;;;5053069;28;20688;-77
2021/03/10 04:25:58;;;;;;;59.13;29.93;;;2.70;99.90;;;;;;5052763;28;20283;-76
2021/03/10 04:28:26;;;;;;;55.23;29.83;;;2.70;99.90;;;;;;5053211;28;20201;-77
2021/03/10 04:30:52;;;;;;;55.73;29.83;;;2.80;99.90;;;;;;5052444;28;20257;-77
2021/03/10 04:33:19;;;;;;;56.53;29.83;;;2.70;99.90;;;;;;5053085;28;20263;-77
2021/03/10 04:35:46;;;;;;;55.30;29.53;;;2.80;99.90;;;;;;5052941;28;20206;-77
2021/03/10 04:38:12;;;;;;;55.33;30.23;;;2.80;99.90;;;;;;5052296;28;20225;-77
2021/03/10 04:40:39;;;;;;;53.83;29.83;;;2.70;99.90;;;;;;5052514;28;20643;-78
2021/03/10 04:43:05;;;;;;;59.17;29.37;;;2.80;99.90;;;;;;5052482;28;20229;-77
2021/03/10 04:45:32;;;;;;;56.17;29.13;;;2.70;99.90;;;;;;5044693;28;20229;-77
2021/03/10 04:47:59;;;;;;;60.23;29.77;;;2.70;99.90;;;;;;5032779;28;20239;-77
2021/03/10 04:50:25;;;;;;;58.17;30.00;;;2.70;99.90;;;;;;5051917;28;20697;-77
2021/03/10 04:52:52;;;;;;;58.60;30.83;;;2.70;99.90;;;;;;5052809;28;20378;-77
2021/03/10 04:55:18;;;;;;;58.00;30.07;;;2.70;99.90;;;;;;5052013;28;20251;-77
2021/03/10 04:57:44;;;;;;;57.00;30.10;;;2.70;99.90;;;;;;5046984;28;20236;-77
2021/03/10 05:00:12;;;;;;;59.13;30.20;;;2.70;99.90;;;;;;5051876;28;20296;-77
2021/03/10 05:02:40;;;;;;;57.50;30.80;;;2.60;99.90;;;;;;5052026;28;20623;-77
2021/03/10 05:05:08;;;;;;;55.10;30.20;;;2.60;99.90;;;;;;5052236;28;20231;-77
2021/03/10 05:07:35;;;;;;;55.97;28.97;;;2.60;99.90;;;;;;5051947;28;20267;-77
2021/03/10 05:10:02;;;;;;;56.70;30.33;;;2.60;99.90;;;;;;5052427;28;20264;-77
2021/03/10 05:12:30;;;;;;;57.07;30.17;;;2.60;99.90;;;;;;5051752;28;20268;-77
2021/03/10 05:14:57;;;;;;;59.13;31.10;;;2.60;99.90;;;;;;5046340;28;20294;-77
2021/03/10 05:17:25;;;;;;;54.63;29.37;;;2.60;99.90;;;;;;5050765;28;20240;-77
2021/03/10 05:19:52;;;;;;;60.87;30.23;;;2.60;99.90;;;;;;5047741;28;20253;-77
2021/03/10 05:22:19;;;;;;;60.03;30.87;;;2.60;99.90;;;;;;5052640;28;20232;-77
2021/03/10 05:24:45;;;;;;;58.33;31.67;;;2.60;99.90;;;;;;5051741;28;20239;-77
2021/03/10 05:27:11;;;;;;;55.57;31.60;;;2.60;99.90;;;;;;5052291;28;20306;-77
2021/03/10 05:29:38;;;;;;;54.67;30.17;;;2.60;99.90;;;;;;5049952;28;20218;-77
2021/03/10 05:32:05;;;;;;;55.90;29.73;;;2.60;99.90;;;;;;5052042;28;20228;-77
2021/03/10 05:34:32;;;;;;;58.13;31.57;;;2.60;99.90;;;;;;5052102;28;20240;-77
2021/03/10 05:36:59;;;;;;;59.43;30.87;;;2.60;99.90;;;;;;5052127;28;20243;-77
2021/03/10 05:39:25;;;;;;;56.17;30.37;;;2.50;99.90;;;;;;5051721;28;20669;-77
2021/03/10 05:41:52;;;;;;;58.20;30.57;;;2.60;99.90;;;;;;5050347;28;20237;-77
2021/03/10 05:44:19;;;;;;;58.33;31.37;;;2.50;99.90;;;;;;5043516;28;20288;-77
2021/03/10 05:46:45;;;;;;;59.57;30.43;;;2.50;99.90;;;;;;5050866;28;20233;-77
2021/03/10 05:49:11;;;;;;;62.33;31.40;;;2.50;99.90;;;;;;5050705;28;20243;-76
2021/03/10 05:51:38;;;;;;;59.17;30.57;;;2.50;99.90;;;;;;5051769;28;20206;-76
2021/03/10 05:54:06;;;;;;;57.93;31.37;;;2.50;99.90;;;;;;5051932;28;20593;-77
2021/03/10 05:56:34;;;;;;;55.73;31.20;;;2.50;99.90;;;;;;5051398;28;20243;-77
2021/03/10 05:59:01;;;;;;;61.13;30.97;;;2.50;99.90;;;;;;5048389;28;20233;-77
2021/03/10 06:01:28;;;;;;;56.07;31.40;;;2.50;99.90;;;;;;5051887;28;20308;-76
2021/03/10 06:03:56;;;;;;;58.80;29.97;;;2.50;99.90;;;;;;5050516;28;20606;-77
2021/03/10 06:06:24;;;;;;;55.43;29.07;;;2.60;99.90;;;;;;5046921;28;20259;-78
2021/03/10 06:08:51;;;;;;;58.23;30.93;;;2.60;99.90;;;;;;5046890;28;20305;-75
2021/03/10 06:11:25;;;;;;;56.47;29.67;;;2.60;99.90;;;;;;5020726;28;20267;-76
2021/03/10 06:13:52;;;;;;;56.43;28.70;;;2.60;99.90;;;;;;5043569;28;20228;-75
2021/03/10 06:16:23;;;;;;;59.60;30.13;;;2.60;99.90;;;;;;5050428;28;20233;-76
2021/03/10 06:19:01;;;;;;;56.77;30.27;;;2.60;99.90;;;;;;5050066;28;20672;-76
2021/03/10 06:21:27;;;;;;;59.67;29.17;;;2.60;99.90;;;;;;5037004;28;20237;-76
2021/03/10 06:23:55;;;;;;;56.27;29.00;;;2.70;99.90;;;;;;5053325;28;20231;-75
2021/03/10 06:26:24;;;;;;;55.67;30.13;;;2.70;99.90;;;;;;5055097;28;20236;-76
2021/03/10 06:29:01;;;;;;;55.47;30.03;;;2.70;99.90;;;;;;5046277;28;20208;-76
2021/03/10 06:31:30;;;;;;;54.27;28.80;;;2.70;99.90;;;;;;5046136;28;20325;-75
2021/03/10 06:34:01;;;;;;;57.27;28.93;;;2.70;99.90;;;;;;5045028;28;20207;-77
2021/03/10 06:36:30;;;;;;;53.23;29.30;;;2.80;99.90;;;;;;5041655;28;20639;-76
2021/03/10 06:42:14;;;;;;;55.90;29.33;;;2.90;99.90;;;;;;5034816;28;20209;-75
2021/03/10 06:44:50;;;;;;;55.43;29.43;;;2.90;99.90;;;;;;5034715;28;20214;-75
2021/03/10 06:47:16;;;;;;;60.47;31.17;;;2.90;99.90;;;;;;5049596;28;20910;-76
2021/03/10 06:49:50;;;;;;;59.00;29.30;;;2.90;99.90;;;;;;5049404;28;20308;-76
2021/03/10 06:52:17;;;;;;;61.30;30.13;;;2.90;99.90;;;;;;5058944;28;20645;-76
2021/03/10 06:54:53;;;;;;;58.77;30.67;;;2.90;99.90;;;;;;5056261;28;20611;-75
2021/03/10 06:57:19;;;;;;;57.13;30.33;;;2.90;99.90;;;;;;5050924;28;20231;-76
2021/03/10 06:59:47;;;;;;;53.30;29.43;;;2.80;99.90;;;;;;5051122;28;20234;-77
2021/03/10 07:02:16;;;;;;;58.80;30.60;;;2.80;99.90;;;;;;5048843;28;20232;-77
2021/03/10 07:04:44;;;;;;;59.37;30.97;;;2.90;99.90;;;;;;5046138;28;20233;-76
2021/03/10 07:07:11;;;;;;;51.90;26.83;;;2.90;99.90;;;;;;5039312;28;20260;-76
2021/03/10 07:09:38;;;;;;;57.60;31.03;;;3.00;99.90;;;;;;5043807;28;20259;-75
2021/03/10 07:12:07;;;;;;;47.73;24.20;;;3.00;99.90;;;;;;5053837;28;20695;-76
2021/03/10 07:14:34;;;;;;;53.77;29.67;;;3.00;99.90;;;;;;5043941;28;20245;-76
2021/03/10 07:17:01;;;;;;;54.57;30.73;;;3.00;99.90;;;;;;5042201;28;20258;-75
2021/03/10 07:19:29;;;;;;;52.60;28.43;;;3.00;99.90;;;;;;5034395;28;20230;-75
2021/03/10 07:21:57;;;;;;;55.37;30.90;;;3.10;99.90;;;;;;5041896;28;20199;-75
2021/03/10 07:24:31;;;;;;;54.77;29.53;;;3.10;99.90;;;;;;5040873;28;20241;-76
2021/03/10 07:26:59;;;;;;;54.90;29.50;;;3.10;99.90;;;;;;5051521;28;20286;-75
2021/03/10 07:29:27;;;;;;;53.70;29.47;;;3.20;99.90;;;;;;5054031;28;20234;-76
2021/03/10 07:32:00;;;;;;;53.03;29.43;;;3.20;99.90;;;;;;5053110;28;20228;-75
2021/03/10 07:34:28;;;;;;;53.50;29.43;;;3.20;99.90;;;;;;5047031;28;20207;-75
2021/03/10 07:36:55;;;;;;;55.80;30.03;;;3.20;99.90;;;;;;5044307;28;20202;-76
2021/03/10 07:39:24;;;;;;;56.73;30.17;;;3.20;99.90;;;;;;5045544;28;20615;-76
2021/03/10 07:41:51;;;;;;;49.47;27.17;;;3.30;99.90;;;;;;5052937;28;20214;-75
2021/03/10 07:44:22;;;;;;;52.50;28.00;;;3.30;99.90;;;;;;5053143;28;20203;-75
2021/03/10 07:46:50;;;;;;;45.17;23.17;;;3.40;99.90;;;;;;5051590;28;20674;-75
2021/03/10 07:49:25;;;;;;;50.17;28.50;;;3.40;99.90;;;;;;5038699;28;20233;-76
2021/03/10 07:52:04;;;;;;;50.93;28.00;;;3.40;99.90;;;;;;5052549;28;20726;-75
2021/03/10 07:54:31;;;;;;;48.57;26.07;;;3.50;99.90;;;;;;5039172;28;20239;-76
2021/03/10 07:57:09;;;;;;;47.30;26.27;;;3.60;99.90;;;;;;5046699;28;20298;-76
2021/03/10 07:59:36;;;;;;;48.87;26.07;;;3.60;99.90;;;;;;5050126;28;20847;-75
2021/03/10 08:02:05;;;;;;;47.07;26.97;;;3.70;99.90;;;;;;5043006;28;21086;-75
2021/03/10 08:04:31;;;;;;;48.70;26.70;;;3.70;99.90;;;;;;5044705;28;20200;-76
2021/03/10 08:06:59;;;;;;;47.17;27.57;;;3.70;99.90;;;;;;5041270;28;20961;-77
2021/03/10 08:09:28;;;;;;;47.67;27.13;;;3.70;99.90;;;;;;5044553;28;20210;-76
2021/03/10 08:12:07;;;;;;;54.17;27.10;;;3.70;99.90;;;;;;5044107;28;20241;-77
2021/03/10 08:14:38;;;;;;;52.97;29.87;;;3.80;99.90;;;;;;5042552;28;20269;-76
2021/03/10 08:17:05;;;;;;;48.70;26.90;;;3.90;99.90;;;;;;5033047;28;20255;-75
2021/03/10 08:19:32;;;;;;;49.90;28.77;;;4.00;99.90;;;;;;5050053;28;20270;-76
2021/03/10 08:22:00;;;;;;;51.07;28.50;;;3.90;99.90;;;;;;5046436;28;20195;-77
2021/03/10 08:24:27;;;;;;;50.63;27.93;;;4.00;99.90;;;;;;5039090;28;20221;-76
2021/03/10 08:26:55;;;;;;;56.43;27.23;;;4.10;99.90;;;;;;5047095;28;20234;-76
2021/03/10 08:29:22;;;;;;;51.10;28.97;;;4.10;99.90;;;;;;5044534;28;20255;-76
2021/03/10 08:31:51;;;;;;;42.83;25.27;;;4.20;99.90;;;;;;5035848;28;20234;-76
2021/03/10 08:34:29;;;;;;;43.07;21.93;;;4.30;99.90;;;;;;5037961;28;20231;-76
2021/03/10 08:36:56;;;;;;;48.60;27.77;;;4.40;99.90;;;;;;5039905;28;20658;-76
2021/03/10 08:39:23;;;;;;;41.93;25.17;;;4.60;99.90;;;;;;5039873;28;20311;-77
2021/03/10 08:41:51;;;;;;;42.33;27.00;;;4.80;99.90;;;;;;5042749;28;20742;-76
2021/03/10 08:44:21;;;;;;;41.67;26.43;;;4.80;99.90;;;;;;5041939;28;20242;-77
2021/03/10 08:46:49;;;;;;;39.53;25.17;;;4.90;99.90;;;;;;5042219;28;20227;-76
2021/03/10 08:49:29;;;;;;;41.53;22.77;;;5.10;99.90;;;;;;5040163;28;20238;-76
2021/03/10 08:52:10;;;;;;;38.07;23.13;;;5.30;99.90;;;;;;5040602;28;20254;-76
2021/03/10 08:55:02;;;;;;;39.63;24.00;;;5.50;99.90;;;;;;5045807;28;20206;-76
2021/03/10 08:57:30;;;;;;;36.23;22.03;;;5.60;99.90;;;;;;5038170;28;20684;-77
2021/03/10 08:59:58;;;;;;;36.47;22.60;;;5.70;99.90;;;;;;5044560;28;20637;-76
2021/03/10 09:02:30;;;;;;;35.67;20.20;;;5.90;99.90;;;;;;5036973;28;20233;-76
2021/03/10 09:04:57;;;;;;;36.27;21.00;;;5.90;99.90;;;;;;5040887;28;20225;-76
2021/03/10 09:07:24;;;;;;;35.73;22.30;;;6.10;99.90;;;;;;5046220;28;20210;-76
2021/03/10 09:09:55;;;;;;;31.60;20.40;;;6.20;99.90;;;;;;5038843;28;20280;-76
2021/03/10 09:12:23;;;;;;;32.80;20.80;;;6.20;99.90;;;;;;5039430;28;20205;-76
2021/03/10 09:14:50;;;;;;;34.37;22.40;;;6.30;99.90;;;;;;5045863;28;20211;-75
2021/03/10 09:17:17;;;;;;;30.13;20.03;;;6.30;99.90;;;;;;5039798;28;20253;-75
2021/03/10 09:19:46;;;;;;;30.90;20.13;;;6.50;99.90;;;;;;5039691;28;20282;-76
2021/03/10 09:22:18;;;;;;;34.40;19.20;;;6.60;99.90;;;;;;5039841;28;20654;-76
2021/03/10 09:24:53;;;;;;;34.30;21.53;;;6.50;99.90;;;;;;5040161;28;20211;-76
2021/03/10 09:27:22;;;;;;;40.73;23.27;;;6.60;99.90;;;;;;5037063;28;20738;-75
2021/03/10 09:29:49;;;;;;;35.33;22.23;;;6.70;99.90;;;;;;5037667;28;20313;-76
2021/03/10 09:32:16;;;;;;;32.90;21.97;;;6.70;99.90;;;;;;5033465;28;20337;-75
2021/03/10 09:34:47;;;;;;;32.73;20.83;;;6.80;99.90;;;;;;5037376;28;20638;-76
2021/03/10 09:37:14;;;;;;;32.67;21.27;;;6.90;99.90;;;;;;5042658;28;20203;-76
2021/03/10 09:39:42;;;;;;;32.70;21.67;;;7.00;99.90;;;;;;5042643;28;20229;-76
2021/03/10 09:42:09;;;;;;;30.70;19.73;;;7.00;99.90;;;;;;5046606;28;20231;-76
2021/03/10 09:44:48;;;;;;;28.93;19.03;;;7.00;99.90;;;;;;5043561;28;20238;-75
2021/03/10 09:47:20;;;;;;;28.13;18.97;;;7.10;99.90;;;;;;5035776;28;20242;-76
2021/03/10 09:49:49;;;;;;;30.43;19.23;;;7.40;99.90;;;;;;5018288;28;20227;-76
2021/03/10 09:52:16;;;;;;;25.90;17.37;;;7.40;99.90;;;;;;5053045;28;20203;-76
2021/03/10 09:54:53;;;;;;;27.23;17.77;;;7.60;99.90;;;;;;5048472;28;20622;-76
2021/03/10 09:57:21;;;;;;;26.40;16.73;;;7.80;99.90;;;;;;5057091;28;20238;-76
2021/03/10 09:59:48;;;;;;;26.97;18.33;;;7.80;99.90;;;;;;5057488;28;20227;-76
2021/03/10 10:02:15;;;;;;;31.40;18.00;;;8.00;99.90;;;;;;5053875;28;20207;-77
2021/03/10 10:04:42;;;;;;;26.97;17.80;;;8.20;99.90;;;;;;5046816;28;20675;-77
2021/03/10 10:07:13;;;;;;;26.67;17.27;;;8.40;99.90;;;;;;5041592;28;20208;-76
2021/03/10 10:09:40;;;;;;;26.03;16.83;;;8.40;99.90;;;;;;5044597;28;20198;-76
2021/03/10 10:12:07;;;;;;;27.80;17.40;;;8.40;99.90;;;;;;5051817;28;20226;-76
2021/03/10 10:14:34;;;;;;;27.23;17.40;;;8.90;99.90;;;;;;5041267;28;20237;-76
2021/03/10 10:17:01;;;;;;;26.07;16.80;;;8.90;99.90;;;;;;5037993;28;20313;-76
2021/03/10 10:19:28;;;;;;;28.17;17.60;;;9.00;99.90;;;;;;5053026;28;20265;-76
2021/03/10 10:21:54;;;;;;;22.97;16.80;;;8.80;99.90;;;;;;5043436;28;20735;-76
2021/03/10 10:24:21;;;;;;;24.17;16.53;;;9.30;99.90;;;;;;5049142;28;20242;-76
2021/03/10 10:26:48;;;;;;;21.67;15.77;;;10.00;99.90;;;;;;5043330;28;20642;-76
2021/03/10 10:29:15;;;;;;;22.63;16.27;;;10.30;99.90;;;;;;5043054;28;20212;-76
2021/03/10 10:31:42;;;;;;;23.17;15.87;;;9.90;99.90;;;;;;5035542;28;20622;-76
2021/03/10 10:34:09;;;;;;;21.23;15.20;;;9.90;99.90;;;;;;5041010;28;20590;-76
2021/03/10 10:36:35;;;;;;;22.47;16.27;;;9.70;99.90;;;;;;5042912;28;20238;-76
2021/03/10 10:39:02;;;;;;;23.90;16.77;;;10.10;99.90;;;;;;5045191;28;20239;-76
2021/03/10 10:41:29;;;;;;;24.97;15.73;;;9.70;99.90;;;;;;5045227;28;20201;-76
2021/03/10 10:43:55;;;;;;;21.10;15.60;;;9.40;99.90;;;;;;5046628;28;20592;-76
2021/03/10 10:46:22;;;;;;;24.80;16.47;;;9.50;99.90;;;;;;5044085;28;20213;-76
2021/03/10 10:48:48;;;;;;;23.23;15.67;;;9.50;99.90;;;;;;5053418;28;20203;-77
2021/03/10 10:51:18;;;;;;;21.67;15.93;;;9.40;99.90;;;;;;5040264;28;20261;-77
2021/03/10 10:53:45;;;;;;;25.67;16.13;;;9.80;99.90;;;;;;5046122;28;20286;-76
2021/03/10 10:56:11;;;;;;;21.97;15.50;;;9.60;99.90;;;;;;5049394;28;20239;-76
2021/03/10 10:58:38;;;;;;;23.50;15.53;;;9.80;99.90;;;;;;5061379;28;20241;-77
2021/03/10 11:01:04;;;;;;;24.77;15.57;;;10.10;99.90;;;;;;5043917;28;20296;-76
2021/03/10 11:03:30;;;;;;;23.37;15.33;;;10.00;99.90;;;;;;5041423;28;20695;-76
2021/03/10 11:05:57;;;;;;;18.33;13.80;;;9.70;99.90;;;;;;5043267;28;20304;-76
2021/03/10 11:08:25;;;;;;;23.60;15.27;;;9.70;99.90;;;;;;5042218;28;20232;-76
2021/03/10 11:10:51;;;;;;;22.10;15.20;;;9.40;99.90;;;;;;5045325;28;20737;-76
2021/03/10 11:13:18;;;;;;;21.63;15.07;;;9.80;99.90;;;;;;5044674;28;20227;-76
2021/03/10 11:15:44;;;;;;;25.40;14.67;;;9.40;99.90;;;;;;5042945;28;20291;-76
2021/03/10 11:18:10;;;;;;;23.30;16.40;;;9.30;99.90;;;;;;5034024;28;20757;-77
2021/03/10 11:20:37;;;;;;;25.00;16.93;;;9.00;99.90;;;;;;5040503;28;20232;-76
2021/03/10 11:23:03;;;;;;;23.10;15.47;;;9.00;99.90;;;;;;5045487;28;20625;-76
2021/03/10 11:25:31;;;;;;;25.63;16.83;;;8.80;99.90;;;;;;5044329;28;20292;-77
2021/03/10 11:27:57;;;;;;;22.60;16.27;;;9.00;99.90;;;;;;5044290;28;20236;-77
2021/03/10 11:30:24;;;;;;;22.83;17.33;;;9.10;99.90;;;;;;5043052;28;20278;-77
2021/03/10 11:32:50;;;;;;;25.53;17.03;;;9.30;99.90;;;;;;5043703;28;20243;-77
2021/03/10 11:35:17;;;;;;;24.33;17.30;;;9.20;99.90;;;;;;5041715;28;20202;-77
2021/03/10 11:37:44;;;;;;;25.27;18.13;;;9.20;99.90;;;;;;5034135;28;20780;-77
2021/03/10 11:40:11;;;;;;;25.40;17.93;;;9.10;99.90;;;;;;5039142;28;20199;-77
2021/03/10 11:42:39;;;;;;;25.83;17.70;;;9.10;99.90;;;;;;5046620;28;20203;-77
2021/03/10 11:45:07;;;;;;;24.20;17.40;;;9.10;99.90;;;;;;5047874;28;20248;-78
2021/03/10 11:47:34;;;;;;;27.30;18.20;;;9.10;99.90;;;;;;5045081;28;20712;-77
2021/03/10 11:50:00;;;;;;;23.57;16.87;;;9.00;99.90;;;;;;5043689;28;20251;-77
2021/03/10 11:52:27;;;;;;;23.73;16.67;;;9.10;99.90;;;;;;5045198;28;20717;-76
2021/03/10 11:54:53;;;;;;;24.17;16.70;;;9.10;99.90;;;;;;5051870;28;20223;-77
2021/03/10 11:57:20;;;;;;;27.20;17.63;;;9.40;99.90;;;;;;5048741;28;20223;-76
2021/03/10 11:59:47;;;;;;;25.93;17.13;;;9.30;99.90;;;;;;5042060;28;20244;-76
2021/03/10 12:02:14;;;;;;;23.90;16.93;;;9.30;99.90;;;;;;5051464;28;20372;-76
2021/03/10 12:04:40;;;;;;;22.87;15.77;;;9.30;99.90;;;;;;5049178;28;20208;-76
2021/03/10 12:07:06;;;;;;;22.83;17.10;;;9.40;99.90;;;;;;5050171;28;20632;-76
2021/03/10 12:09:33;;;;;;;26.63;18.33;;;9.30;99.90;;;;;;5044137;28;20240;-76
2021/03/10 12:12:00;;;;;;;25.50;17.87;;;9.70;99.90;;;;;;5044232;28;20248;-76
2021/03/10 12:14:26;;;;;;;26.53;18.50;;;9.30;99.90;;;;;;5048447;28;20694;-76
2021/03/10 12:16:54;;;;;;;27.10;19.23;;;9.30;99.90;;;;;;5049820;28;20330;-77
2021/03/10 12:19:20;;;;;;;26.23;18.63;;;9.70;99.90;;;;;;5035837;28;20231;-74
2021/03/10 12:21:47;;;;;;;29.83;19.00;;;9.60;99.90;;;;;;5043390;28;20233;-74
2021/03/10 12:24:13;;;;;;;28.80;19.17;;;9.60;99.90;;;;;;5034731;28;20203;-74
2021/03/10 12:26:40;;;;;;;24.97;18.80;;;9.70;99.90;;;;;;5051969;28;20203;-74
2021/03/10 12:29:06;;;;;;;26.03;18.77;;;10.10;99.90;;;;;;5044236;28;20231;-75
2021/03/10 12:31:33;;;;;;;28.17;19.27;;;9.90;99.90;;;;;;5040330;28;20262;-75
2021/03/10 12:34:00;;;;;;;27.10;19.17;;;10.10;99.90;;;;;;5032716;28;20245;-75
2021/03/10 12:36:26;;;;;;;26.33;19.07;;;10.10;99.90;;;;;;5047374;28;20650;-73
2021/03/10 12:38:53;;;;;;;26.00;18.53;;;9.80;99.90;;;;;;5048840;28;20251;-74
2021/03/10 12:41:19;;;;;;;28.17;19.03;;;9.70;99.90;;;;;;5039656;28;20296;-74
2021/03/10 12:43:45;;;;;;;27.50;20.00;;;9.80;99.90;;;;;;5041974;28;20239;-74